sensor_id;sensor_type;location;lat;lon;timestamp;P1;durP1;ratioP1;P2;durP2;ratioP2
32080;SDS011;18593;51.426;7.030;2023-08-12T00:02:17;26.25;;;20.65;;
32080;SDS011;18593;51.426;7.030;2023-08-12T00:04:45;29.20;;;22.20;;
32080;SDS011;18593;51.426;7.030;2023-08-12T00:07:13;30.70;;;22.52;;
32080;SDS011;18593;51.426;7.030;2023-08-12T00:09:40;31.63;;;23.58;;
32080;SDS011;18593;51.426;7.030;2023-08-12T00:12:07;32.08;;;22.73;;
32080;SDS011;18593;51.426;7.030;2023-08-12T00:14:34;35.88;;;25.25;;
32080;SDS011;18593;51.426;7.030;2023-08-12T00:17:03;32.50;;;22.88;;
32080;SDS011;18593;51.426;7.030;2023-08-12T00:19:30;30.33;;;22.85;;
32080;SDS011;18593;51.426;7.030;2023-08-12T00:21:57;31.73;;;23.77;;
32080;SDS011;18593;51.426;7.030;2023-08-12T00:24:24;27.90;;;21.65;;
32080;SDS011;18593;51.426;7.030;2023-08-12T00:26:52;28.35;;;22.85;;
32080;SDS011;18593;51.426;7.030;2023-08-12T00:29:19;28.38;;;22.02;;
32080;SDS011;18593;51.426;7.030;2023-08-12T00:31:46;29.67;;;22.65;;
32080;SDS011;18593;51.426;7.030;2023-08-12T00:34:16;29.63;;;22.60;;
32080;SDS011;18593;51.426;7.030;2023-08-12T00:36:43;27.27;;;21.23;;
32080;SDS011;18593;51.426;7.030;2023-08-12T00:39:11;27.50;;;21.73;;
32080;SDS011;18593;51.426;7.030;2023-08-12T00:41:38;27.40;;;21.55;;
32080;SDS011;18593;51.426;7.030;2023-08-12T00:44:05;27.63;;;20.67;;
32080;SDS011;18593;51.426;7.030;2023-08-12T00:46:34;27.50;;;22.33;;
32080;SDS011;18593;51.426;7.030;2023-08-12T00:49:03;27.58;;;21.85;;
32080;SDS011;18593;51.426;7.030;2023-08-12T00:51:32;26.65;;;20.77;;
32080;SDS011;18593;51.426;7.030;2023-08-12T00:54:01;30.15;;;22.90;;
32080;SDS011;18593;51.426;7.030;2023-08-12T00:56:31;28.10;;;21.27;;
32080;SDS011;18593;51.426;7.030;2023-08-12T00:59:00;27.30;;;20.70;;
32080;SDS011;18593;51.426;7.030;2023-08-12T01:01:33;27.20;;;21.05;;
32080;SDS011;18593;51.426;7.030;2023-08-12T01:04:01;27.20;;;20.85;;
32080;SDS011;18593;51.426;7.030;2023-08-12T01:06:28;26.75;;;20.92;;
32080;SDS011;18593;51.426;7.030;2023-08-12T01:08:56;24.30;;;19.67;;
32080;SDS011;18593;51.426;7.030;2023-08-12T01:11:25;28.10;;;21.23;;
32080;SDS011;18593;51.426;7.030;2023-08-12T01:14:04;27.15;;;20.48;;
32080;SDS011;18593;51.426;7.030;2023-08-12T01:16:40;25.35;;;19.98;;
32080;SDS011;18593;51.426;7.030;2023-08-12T01:19:16;28.17;;;21.20;;
32080;SDS011;18593;51.426;7.030;2023-08-12T01:22:00;29.00;;;21.30;;
32080;SDS011;18593;51.426;7.030;2023-08-12T01:24:35;27.05;;;19.85;;
32080;SDS011;18593;51.426;7.030;2023-08-12T01:27:04;26.42;;;20.33;;
32080;SDS011;18593;51.426;7.030;2023-08-12T01:29:32;25.85;;;20.77;;
32080;SDS011;18593;51.426;7.030;2023-08-12T01:32:04;28.65;;;20.85;;
32080;SDS011;18593;51.426;7.030;2023-08-12T01:34:43;26.35;;;20.15;;
32080;SDS011;18593;51.426;7.030;2023-08-12T01:37:17;27.40;;;21.40;;
32080;SDS011;18593;51.426;7.030;2023-08-12T01:39:53;27.30;;;21.17;;
32080;SDS011;18593;51.426;7.030;2023-08-12T01:42:23;26.40;;;21.40;;
32080;SDS011;18593;51.426;7.030;2023-08-12T01:44:53;25.17;;;20.80;;
32080;SDS011;18593;51.426;7.030;2023-08-12T01:47:20;26.15;;;19.95;;
32080;SDS011;18593;51.426;7.030;2023-08-12T01:49:47;28.15;;;20.98;;
32080;SDS011;18593;51.426;7.030;2023-08-12T01:52:14;27.08;;;19.23;;
32080;SDS011;18593;51.426;7.030;2023-08-12T01:54:42;26.10;;;18.52;;
32080;SDS011;18593;51.426;7.030;2023-08-12T01:57:10;23.98;;;18.95;;
32080;SDS011;18593;51.426;7.030;2023-08-12T01:59:37;26.13;;;17.63;;
32080;SDS011;18593;51.426;7.030;2023-08-12T02:02:05;28.42;;;19.17;;
32080;SDS011;18593;51.426;7.030;2023-08-12T02:04:32;23.80;;;18.85;;
32080;SDS011;18593;51.426;7.030;2023-08-12T02:07:01;25.63;;;18.88;;
32080;SDS011;18593;51.426;7.030;2023-08-12T02:09:29;24.10;;;18.67;;
32080;SDS011;18593;51.426;7.030;2023-08-12T02:11:56;28.05;;;19.13;;
32080;SDS011;18593;51.426;7.030;2023-08-12T02:14:25;25.45;;;19.27;;
32080;SDS011;18593;51.426;7.030;2023-08-12T02:16:59;26.67;;;18.80;;
32080;SDS011;18593;51.426;7.030;2023-08-12T02:19:26;24.20;;;18.17;;
32080;SDS011;18593;51.426;7.030;2023-08-12T02:21:53;25.95;;;18.45;;
32080;SDS011;18593;51.426;7.030;2023-08-12T02:24:20;26.70;;;19.17;;
32080;SDS011;18593;51.426;7.030;2023-08-12T02:26:47;27.25;;;18.80;;
32080;SDS011;18593;51.426;7.030;2023-08-12T02:29:15;24.25;;;18.42;;
32080;SDS011;18593;51.426;7.030;2023-08-12T02:31:43;24.45;;;17.58;;
32080;SDS011;18593;51.426;7.030;2023-08-12T02:34:10;24.63;;;17.85;;
32080;SDS011;18593;51.426;7.030;2023-08-12T02:36:38;24.83;;;17.20;;
32080;SDS011;18593;51.426;7.030;2023-08-12T02:39:05;22.90;;;17.20;;
32080;SDS011;18593;51.426;7.030;2023-08-12T02:41:32;25.17;;;16.88;;
32080;SDS011;18593;51.426;7.030;2023-08-12T02:43:59;23.42;;;16.73;;
32080;SDS011;18593;51.426;7.030;2023-08-12T02:46:27;23.20;;;16.80;;
32080;SDS011;18593;51.426;7.030;2023-08-12T02:48:56;22.67;;;15.98;;
32080;SDS011;18593;51.426;7.030;2023-08-12T02:51:23;19.95;;;15.18;;
32080;SDS011;18593;51.426;7.030;2023-08-12T02:53:50;22.38;;;15.18;;
32080;SDS011;18593;51.426;7.030;2023-08-12T02:56:18;19.48;;;14.77;;
32080;SDS011;18593;51.426;7.030;2023-08-12T02:58:45;23.20;;;15.50;;
32080;SDS011;18593;51.426;7.030;2023-08-12T03:01:12;20.95;;;15.73;;
32080;SDS011;18593;51.426;7.030;2023-08-12T03:03:41;18.85;;;13.05;;
32080;SDS011;18593;51.426;7.030;2023-08-12T03:06:09;15.60;;;11.45;;
32080;SDS011;18593;51.426;7.030;2023-08-12T03:08:36;18.58;;;12.88;;
32080;SDS011;18593;51.426;7.030;2023-08-12T03:11:05;18.52;;;11.63;;
32080;SDS011;18593;51.426;7.030;2023-08-12T03:13:32;16.63;;;12.05;;
32080;SDS011;18593;51.426;7.030;2023-08-12T03:15:59;16.92;;;11.15;;
32080;SDS011;18593;51.426;7.030;2023-08-12T03:18:27;17.40;;;11.85;;
32080;SDS011;18593;51.426;7.030;2023-08-12T03:20:55;17.63;;;11.13;;
32080;SDS011;18593;51.426;7.030;2023-08-12T03:23:25;17.83;;;11.27;;
32080;SDS011;18593;51.426;7.030;2023-08-12T03:25:52;15.73;;;10.38;;
32080;SDS011;18593;51.426;7.030;2023-08-12T03:28:20;17.95;;;12.35;;
32080;SDS011;18593;51.426;7.030;2023-08-12T03:30:51;20.25;;;12.73;;
32080;SDS011;18593;51.426;7.030;2023-08-12T03:33:22;15.63;;;11.85;;
32080;SDS011;18593;51.426;7.030;2023-08-12T03:35:49;22.98;;;13.70;;
32080;SDS011;18593;51.426;7.030;2023-08-12T03:38:17;22.23;;;13.57;;
32080;SDS011;18593;51.426;7.030;2023-08-12T03:40:46;20.42;;;14.13;;
32080;SDS011;18593;51.426;7.030;2023-08-12T03:43:16;22.02;;;14.07;;
32080;SDS011;18593;51.426;7.030;2023-08-12T03:45:44;21.13;;;14.10;;
32080;SDS011;18593;51.426;7.030;2023-08-12T03:48:14;18.33;;;13.90;;
32080;SDS011;18593;51.426;7.030;2023-08-12T03:50:41;18.58;;;13.20;;
32080;SDS011;18593;51.426;7.030;2023-08-12T03:53:12;21.08;;;13.73;;
32080;SDS011;18593;51.426;7.030;2023-08-12T03:55:39;20.15;;;13.77;;
32080;SDS011;18593;51.426;7.030;2023-08-12T03:58:09;21.58;;;13.43;;
32080;SDS011;18593;51.426;7.030;2023-08-12T04:00:40;19.75;;;13.60;;
32080;SDS011;18593;51.426;7.030;2023-08-12T04:03:09;24.02;;;13.35;;
32080;SDS011;18593;51.426;7.030;2023-08-12T04:05:36;21.27;;;14.15;;
32080;SDS011;18593;51.426;7.030;2023-08-12T04:08:03;19.45;;;12.98;;
32080;SDS011;18593;51.426;7.030;2023-08-12T04:10:31;18.33;;;12.25;;
32080;SDS011;18593;51.426;7.030;2023-08-12T04:12:58;20.63;;;12.63;;
32080;SDS011;18593;51.426;7.030;2023-08-12T04:15:26;18.58;;;11.52;;
32080;SDS011;18593;51.426;7.030;2023-08-12T04:17:54;22.42;;;11.68;;
32080;SDS011;18593;51.426;7.030;2023-08-12T04:20:21;14.43;;;10.50;;
32080;SDS011;18593;51.426;7.030;2023-08-12T04:22:48;22.27;;;10.38;;
32080;SDS011;18593;51.426;7.030;2023-08-12T04:25:16;15.02;;;10.05;;
32080;SDS011;18593;51.426;7.030;2023-08-12T04:27:43;12.70;;;9.63;;
32080;SDS011;18593;51.426;7.030;2023-08-12T04:30:13;19.02;;;10.88;;
32080;SDS011;18593;51.426;7.030;2023-08-12T04:32:41;14.38;;;10.27;;
32080;SDS011;18593;51.426;7.030;2023-08-12T04:35:09;15.80;;;9.73;;
32080;SDS011;18593;51.426;7.030;2023-08-12T04:37:38;17.67;;;11.63;;
32080;SDS011;18593;51.426;7.030;2023-08-12T04:40:07;16.25;;;11.63;;
32080;SDS011;18593;51.426;7.030;2023-08-12T04:42:36;18.58;;;12.75;;
32080;SDS011;18593;51.426;7.030;2023-08-12T04:45:06;17.30;;;12.13;;
32080;SDS011;18593;51.426;7.030;2023-08-12T04:47:34;18.63;;;13.25;;
32080;SDS011;18593;51.426;7.030;2023-08-12T04:50:04;18.73;;;13.43;;
32080;SDS011;18593;51.426;7.030;2023-08-12T04:52:32;22.40;;;13.90;;
32080;SDS011;18593;51.426;7.030;2023-08-12T04:54:59;21.05;;;13.55;;
32080;SDS011;18593;51.426;7.030;2023-08-12T04:57:27;21.55;;;13.60;;
32080;SDS011;18593;51.426;7.030;2023-08-12T04:59:54;18.60;;;13.48;;
32080;SDS011;18593;51.426;7.030;2023-08-12T05:02:22;17.40;;;12.82;;
32080;SDS011;18593;51.426;7.030;2023-08-12T05:04:50;15.07;;;12.23;;
32080;SDS011;18593;51.426;7.030;2023-08-12T05:07:21;20.83;;;13.23;;
32080;SDS011;18593;51.426;7.030;2023-08-12T05:09:48;17.77;;;12.93;;
32080;SDS011;18593;51.426;7.030;2023-08-12T05:12:15;18.67;;;13.82;;
32080;SDS011;18593;51.426;7.030;2023-08-12T05:14:43;18.38;;;13.10;;
32080;SDS011;18593;51.426;7.030;2023-08-12T05:17:10;16.83;;;13.20;;
32080;SDS011;18593;51.426;7.030;2023-08-12T05:19:37;19.23;;;14.13;;
32080;SDS011;18593;51.426;7.030;2023-08-12T05:22:07;21.05;;;14.27;;
32080;SDS011;18593;51.426;7.030;2023-08-12T05:24:35;19.88;;;13.95;;
32080;SDS011;18593;51.426;7.030;2023-08-12T05:27:03;19.98;;;13.98;;
32080;SDS011;18593;51.426;7.030;2023-08-12T05:29:30;23.30;;;13.40;;
32080;SDS011;18593;51.426;7.030;2023-08-12T05:31:57;20.75;;;12.50;;
32080;SDS011;18593;51.426;7.030;2023-08-12T05:34:25;14.70;;;10.25;;
32080;SDS011;18593;51.426;7.030;2023-08-12T05:36:53;15.48;;;10.63;;
32080;SDS011;18593;51.426;7.030;2023-08-12T05:39:20;15.40;;;9.88;;
32080;SDS011;18593;51.426;7.030;2023-08-12T05:41:49;17.58;;;9.55;;
32080;SDS011;18593;51.426;7.030;2023-08-12T05:44:17;14.43;;;9.57;;
32080;SDS011;18593;51.426;7.030;2023-08-12T05:46:44;16.75;;;9.07;;
32080;SDS011;18593;51.426;7.030;2023-08-12T05:49:12;13.88;;;8.07;;
32080;SDS011;18593;51.426;7.030;2023-08-12T05:51:39;11.48;;;8.60;;
32080;SDS011;18593;51.426;7.030;2023-08-12T05:54:06;15.23;;;8.80;;
32080;SDS011;18593;51.426;7.030;2023-08-12T05:56:34;13.85;;;8.95;;
32080;SDS011;18593;51.426;7.030;2023-08-12T05:59:02;12.05;;;8.30;;
32080;SDS011;18593;51.426;7.030;2023-08-12T06:01:30;13.77;;;8.50;;
32080;SDS011;18593;51.426;7.030;2023-08-12T06:03:57;14.52;;;7.95;;
32080;SDS011;18593;51.426;7.030;2023-08-12T06:06:24;15.10;;;8.43;;
32080;SDS011;18593;51.426;7.030;2023-08-12T06:08:52;16.10;;;8.68;;
32080;SDS011;18593;51.426;7.030;2023-08-12T06:11:19;13.77;;;8.77;;
32080;SDS011;18593;51.426;7.030;2023-08-12T06:13:46;17.83;;;9.43;;
32080;SDS011;18593;51.426;7.030;2023-08-12T06:16:15;14.75;;;8.52;;
32080;SDS011;18593;51.426;7.030;2023-08-12T06:18:42;12.48;;;8.98;;
32080;SDS011;18593;51.426;7.030;2023-08-12T06:21:09;13.70;;;8.52;;
32080;SDS011;18593;51.426;7.030;2023-08-12T06:23:36;15.82;;;9.20;;
32080;SDS011;18593;51.426;7.030;2023-08-12T06:26:04;12.50;;;8.85;;
32080;SDS011;18593;51.426;7.030;2023-08-12T06:28:31;13.00;;;9.10;;
32080;SDS011;18593;51.426;7.030;2023-08-12T06:30:58;16.55;;;9.40;;
32080;SDS011;18593;51.426;7.030;2023-08-12T06:33:27;15.57;;;8.43;;
32080;SDS011;18593;51.426;7.030;2023-08-12T06:35:54;13.15;;;8.63;;
32080;SDS011;18593;51.426;7.030;2023-08-12T06:38:21;18.05;;;9.13;;
32080;SDS011;18593;51.426;7.030;2023-08-12T06:40:48;11.73;;;8.32;;
32080;SDS011;18593;51.426;7.030;2023-08-12T06:43:16;12.90;;;7.70;;
32080;SDS011;18593;51.426;7.030;2023-08-12T06:45:43;13.57;;;7.57;;
32080;SDS011;18593;51.426;7.030;2023-08-12T06:48:10;13.48;;;6.82;;
32080;SDS011;18593;51.426;7.030;2023-08-12T06:50:39;10.60;;;6.60;;
32080;SDS011;18593;51.426;7.030;2023-08-12T06:53:06;11.82;;;6.80;;
32080;SDS011;18593;51.426;7.030;2023-08-12T06:55:33;12.07;;;6.22;;
32080;SDS011;18593;51.426;7.030;2023-08-12T06:58:01;11.38;;;6.10;;
32080;SDS011;18593;51.426;7.030;2023-08-12T07:00:28;12.23;;;6.13;;
32080;SDS011;18593;51.426;7.030;2023-08-12T07:02:56;11.32;;;5.93;;
32080;SDS011;18593;51.426;7.030;2023-08-12T07:05:23;11.00;;;6.18;;
32080;SDS011;18593;51.426;7.030;2023-08-12T07:07:51;9.32;;;6.18;;
32080;SDS011;18593;51.426;7.030;2023-08-12T07:10:19;14.90;;;5.75;;
32080;SDS011;18593;51.426;7.030;2023-08-12T07:12:46;10.32;;;6.45;;
32080;SDS011;18593;51.426;7.030;2023-08-12T07:15:13;8.98;;;5.43;;
32080;SDS011;18593;51.426;7.030;2023-08-12T07:17:40;8.95;;;5.63;;
32080;SDS011;18593;51.426;7.030;2023-08-12T07:20:08;9.55;;;6.00;;
32080;SDS011;18593;51.426;7.030;2023-08-12T07:22:35;8.52;;;5.18;;
32080;SDS011;18593;51.426;7.030;2023-08-12T07:25:04;8.95;;;5.40;;
32080;SDS011;18593;51.426;7.030;2023-08-12T07:27:32;9.98;;;5.40;;
32080;SDS011;18593;51.426;7.030;2023-08-12T07:29:59;8.98;;;5.07;;
32080;SDS011;18593;51.426;7.030;2023-08-12T07:32:26;10.27;;;5.70;;
32080;SDS011;18593;51.426;7.030;2023-08-12T07:34:54;8.70;;;5.55;;
32080;SDS011;18593;51.426;7.030;2023-08-12T07:37:21;7.82;;;5.28;;
32080;SDS011;18593;51.426;7.030;2023-08-12T07:39:48;7.22;;;5.22;;
32080;SDS011;18593;51.426;7.030;2023-08-12T07:42:17;7.78;;;5.28;;
32080;SDS011;18593;51.426;7.030;2023-08-12T07:44:44;10.45;;;5.40;;
32080;SDS011;18593;51.426;7.030;2023-08-12T07:47:11;14.70;;;6.20;;
32080;SDS011;18593;51.426;7.030;2023-08-12T07:49:40;10.68;;;6.07;;
32080;SDS011;18593;51.426;7.030;2023-08-12T07:52:07;8.90;;;6.50;;
32080;SDS011;18593;51.426;7.030;2023-08-12T07:54:35;8.65;;;5.93;;
32080;SDS011;18593;51.426;7.030;2023-08-12T07:57:03;8.18;;;6.15;;
32080;SDS011;18593;51.426;7.030;2023-08-12T07:59:31;10.95;;;6.68;;
32080;SDS011;18593;51.426;7.030;2023-08-12T08:02:02;11.27;;;6.97;;
32080;SDS011;18593;51.426;7.030;2023-08-12T08:04:29;10.88;;;7.45;;
32080;SDS011;18593;51.426;7.030;2023-08-12T08:06:57;10.52;;;7.45;;
32080;SDS011;18593;51.426;7.030;2023-08-12T08:09:24;10.02;;;7.68;;
32080;SDS011;18593;51.426;7.030;2023-08-12T08:11:51;11.95;;;7.70;;
32080;SDS011;18593;51.426;7.030;2023-08-12T08:14:19;12.07;;;8.18;;
32080;SDS011;18593;51.426;7.030;2023-08-12T08:16:47;9.52;;;7.85;;
32080;SDS011;18593;51.426;7.030;2023-08-12T08:19:14;11.00;;;8.13;;
32080;SDS011;18593;51.426;7.030;2023-08-12T08:21:42;10.93;;;8.15;;
32080;SDS011;18593;51.426;7.030;2023-08-12T08:24:10;11.18;;;8.15;;
32080;SDS011;18593;51.426;7.030;2023-08-12T08:26:38;11.45;;;8.55;;
32080;SDS011;18593;51.426;7.030;2023-08-12T08:29:05;10.65;;;7.97;;
32080;SDS011;18593;51.426;7.030;2023-08-12T08:31:34;12.52;;;7.80;;
32080;SDS011;18593;51.426;7.030;2023-08-12T08:34:02;11.93;;;8.05;;
32080;SDS011;18593;51.426;7.030;2023-08-12T08:36:30;10.02;;;8.30;;
32080;SDS011;18593;51.426;7.030;2023-08-12T08:38:57;9.80;;;7.95;;
32080;SDS011;18593;51.426;7.030;2023-08-12T08:41:25;13.35;;;8.90;;
32080;SDS011;18593;51.426;7.030;2023-08-12T08:43:56;12.90;;;9.02;;
32080;SDS011;18593;51.426;7.030;2023-08-12T08:46:29;12.95;;;8.25;;
32080;SDS011;18593;51.426;7.030;2023-08-12T08:48:57;11.32;;;8.25;;
32080;SDS011;18593;51.426;7.030;2023-08-12T08:51:27;12.35;;;8.90;;
32080;SDS011;18593;51.426;7.030;2023-08-12T08:53:57;11.52;;;8.43;;
32080;SDS011;18593;51.426;7.030;2023-08-12T08:56:25;11.07;;;8.45;;
32080;SDS011;18593;51.426;7.030;2023-08-12T08:58:52;12.52;;;8.98;;
32080;SDS011;18593;51.426;7.030;2023-08-12T09:01:20;13.93;;;8.90;;
32080;SDS011;18593;51.426;7.030;2023-08-12T09:03:48;12.07;;;8.40;;
32080;SDS011;18593;51.426;7.030;2023-08-12T09:06:19;12.45;;;8.63;;
32080;SDS011;18593;51.426;7.030;2023-08-12T09:08:50;8.70;;;7.65;;
32080;SDS011;18593;51.426;7.030;2023-08-12T09:11:18;10.77;;;7.72;;
32080;SDS011;18593;51.426;7.030;2023-08-12T09:13:46;11.40;;;8.10;;
32080;SDS011;18593;51.426;7.030;2023-08-12T09:16:14;14.15;;;7.32;;
32080;SDS011;18593;51.426;7.030;2023-08-12T09:18:42;8.98;;;7.30;;
32080;SDS011;18593;51.426;7.030;2023-08-12T09:21:10;10.13;;;6.78;;
32080;SDS011;18593;51.426;7.030;2023-08-12T09:23:41;9.23;;;6.97;;
32080;SDS011;18593;51.426;7.030;2023-08-12T09:26:14;10.23;;;6.78;;
32080;SDS011;18593;51.426;7.030;2023-08-12T09:28:45;12.48;;;6.53;;
32080;SDS011;18593;51.426;7.030;2023-08-12T09:31:21;10.13;;;6.88;;
32080;SDS011;18593;51.426;7.030;2023-08-12T09:33:50;14.10;;;6.50;;
32080;SDS011;18593;51.426;7.030;2023-08-12T09:36:18;8.50;;;5.50;;
32080;SDS011;18593;51.426;7.030;2023-08-12T09:38:49;10.40;;;6.00;;
32080;SDS011;18593;51.426;7.030;2023-08-12T09:41:21;10.00;;;5.82;;
32080;SDS011;18593;51.426;7.030;2023-08-12T09:43:50;10.40;;;6.07;;
32080;SDS011;18593;51.426;7.030;2023-08-12T09:46:20;7.38;;;5.38;;
32080;SDS011;18593;51.426;7.030;2023-08-12T09:48:49;9.57;;;5.40;;
32080;SDS011;18593;51.426;7.030;2023-08-12T09:51:17;10.93;;;5.38;;
32080;SDS011;18593;51.426;7.030;2023-08-12T09:53:47;6.90;;;5.30;;
32080;SDS011;18593;51.426;7.030;2023-08-12T09:56:17;8.68;;;5.45;;
32080;SDS011;18593;51.426;7.030;2023-08-12T09:58:50;6.47;;;4.78;;
32080;SDS011;18593;51.426;7.030;2023-08-12T10:01:19;7.03;;;4.25;;
32080;SDS011;18593;51.426;7.030;2023-08-12T10:03:47;9.55;;;4.63;;
32080;SDS011;18593;51.426;7.030;2023-08-12T10:06:17;8.60;;;3.97;;
32080;SDS011;18593;51.426;7.030;2023-08-12T10:08:45;6.30;;;3.70;;
32080;SDS011;18593;51.426;7.030;2023-08-12T10:11:13;9.07;;;3.70;;
32080;SDS011;18593;51.426;7.030;2023-08-12T10:13:43;6.60;;;3.35;;
32080;SDS011;18593;51.426;7.030;2023-08-12T10:16:13;6.90;;;3.67;;
32080;SDS011;18593;51.426;7.030;2023-08-12T10:18:41;6.13;;;3.38;;
32080;SDS011;18593;51.426;7.030;2023-08-12T10:21:10;5.60;;;2.80;;
32080;SDS011;18593;51.426;7.030;2023-08-12T10:23:38;4.82;;;2.80;;
32080;SDS011;18593;51.426;7.030;2023-08-12T10:26:10;6.95;;;3.08;;
32080;SDS011;18593;51.426;7.030;2023-08-12T10:28:39;5.80;;;3.15;;
32080;SDS011;18593;51.426;7.030;2023-08-12T10:31:08;6.90;;;3.17;;
32080;SDS011;18593;51.426;7.030;2023-08-12T10:33:37;5.18;;;3.42;;
32080;SDS011;18593;51.426;7.030;2023-08-12T10:36:06;6.03;;;3.20;;
32080;SDS011;18593;51.426;7.030;2023-08-12T10:38:34;6.68;;;3.15;;
32080;SDS011;18593;51.426;7.030;2023-08-12T10:41:18;5.30;;;3.13;;
32080;SDS011;18593;51.426;7.030;2023-08-12T10:43:53;4.55;;;3.05;;
32080;SDS011;18593;51.426;7.030;2023-08-12T10:46:30;5.53;;;2.90;;
32080;SDS011;18593;51.426;7.030;2023-08-12T10:48:59;5.35;;;2.80;;
32080;SDS011;18593;51.426;7.030;2023-08-12T10:54:22;5.82;;;2.75;;
32080;SDS011;18593;51.426;7.030;2023-08-12T10:57:08;5.67;;;2.20;;
32080;SDS011;18593;51.426;7.030;2023-08-12T10:59:51;4.13;;;2.10;;
32080;SDS011;18593;51.426;7.030;2023-08-12T11:02:25;4.47;;;2.30;;
32080;SDS011;18593;51.426;7.030;2023-08-12T11:04:55;3.47;;;1.83;;
32080;SDS011;18593;51.426;7.030;2023-08-12T11:07:33;2.80;;;1.83;;
32080;SDS011;18593;51.426;7.030;2023-08-12T11:10:05;3.53;;;1.70;;
32080;SDS011;18593;51.426;7.030;2023-08-12T11:12:38;4.63;;;1.58;;
32080;SDS011;18593;51.426;7.030;2023-08-12T11:15:07;3.85;;;1.83;;
32080;SDS011;18593;51.426;7.030;2023-08-12T11:17:38;2.75;;;1.30;;
32080;SDS011;18593;51.426;7.030;2023-08-12T11:22:36;2.50;;;1.20;;
32080;SDS011;18593;51.426;7.030;2023-08-12T11:25:05;2.45;;;1.20;;
32080;SDS011;18593;51.426;7.030;2023-08-12T11:27:36;2.80;;;1.20;;
32080;SDS011;18593;51.426;7.030;2023-08-12T11:30:05;2.97;;;1.30;;
32080;SDS011;18593;51.426;7.030;2023-08-12T11:32:35;2.50;;;1.30;;
32080;SDS011;18593;51.426;7.030;2023-08-12T11:35:05;2.58;;;1.40;;
32080;SDS011;18593;51.426;7.030;2023-08-12T11:37:38;2.15;;;1.08;;
32080;SDS011;18593;51.426;7.030;2023-08-12T11:40:07;2.05;;;0.95;;
32080;SDS011;18593;51.426;7.030;2023-08-12T11:42:36;3.28;;;1.30;;
32080;SDS011;18593;51.426;7.030;2023-08-12T11:45:05;4.88;;;1.35;;
32080;SDS011;18593;51.426;7.030;2023-08-12T11:47:34;2.97;;;1.00;;
32080;SDS011;18593;51.426;7.030;2023-08-12T11:50:06;2.17;;;1.10;;
32080;SDS011;18593;51.426;7.030;2023-08-12T11:52:38;3.00;;;1.20;;
32080;SDS011;18593;51.426;7.030;2023-08-12T11:55:09;2.17;;;1.15;;
32080;SDS011;18593;51.426;7.030;2023-08-12T11:57:36;2.75;;;1.30;;
32080;SDS011;18593;51.426;7.030;2023-08-12T12:00:08;2.15;;;1.25;;
32080;SDS011;18593;51.426;7.030;2023-08-12T12:02:40;3.97;;;1.23;;
32080;SDS011;18593;51.426;7.030;2023-08-12T12:05:18;2.80;;;1.50;;
32080;SDS011;18593;51.426;7.030;2023-08-12T12:07:53;2.97;;;1.55;;
32080;SDS011;18593;51.426;7.030;2023-08-12T12:10:20;3.17;;;1.40;;
32080;SDS011;18593;51.426;7.030;2023-08-12T12:12:54;2.88;;;1.50;;
32080;SDS011;18593;51.426;7.030;2023-08-12T12:15:22;3.42;;;1.90;;
32080;SDS011;18593;51.426;7.030;2023-08-12T12:17:50;3.38;;;1.77;;
32080;SDS011;18593;51.426;7.030;2023-08-12T12:20:19;2.70;;;1.50;;
32080;SDS011;18593;51.426;7.030;2023-08-12T12:22:48;3.55;;;1.48;;
32080;SDS011;18593;51.426;7.030;2023-08-12T12:25:16;4.05;;;1.70;;
32080;SDS011;18593;51.426;7.030;2023-08-12T12:27:45;4.13;;;1.83;;
32080;SDS011;18593;51.426;7.030;2023-08-12T12:30:14;3.45;;;1.80;;
32080;SDS011;18593;51.426;7.030;2023-08-12T12:32:42;6.43;;;2.13;;
32080;SDS011;18593;51.426;7.030;2023-08-12T12:35:10;7.20;;;2.63;;
32080;SDS011;18593;51.426;7.030;2023-08-12T12:37:39;5.78;;;2.17;;
32080;SDS011;18593;51.426;7.030;2023-08-12T12:40:07;3.53;;;2.08;;
32080;SDS011;18593;51.426;7.030;2023-08-12T12:42:36;6.38;;;2.30;;
32080;SDS011;18593;51.426;7.030;2023-08-12T12:45:04;3.63;;;2.13;;
32080;SDS011;18593;51.426;7.030;2023-08-12T12:47:32;3.63;;;2.20;;
32080;SDS011;18593;51.426;7.030;2023-08-12T12:49:59;6.50;;;2.65;;
32080;SDS011;18593;51.426;7.030;2023-08-12T12:52:27;7.43;;;3.40;;
32080;SDS011;18593;51.426;7.030;2023-08-12T12:54:55;12.25;;;4.30;;
32080;SDS011;18593;51.426;7.030;2023-08-12T12:57:24;10.48;;;4.90;;
32080;SDS011;18593;51.426;7.030;2023-08-12T12:59:52;7.57;;;4.10;;
32080;SDS011;18593;51.426;7.030;2023-08-12T13:02:19;6.82;;;4.38;;
32080;SDS011;18593;51.426;7.030;2023-08-12T13:04:47;7.13;;;4.38;;
32080;SDS011;18593;51.426;7.030;2023-08-12T13:07:15;6.50;;;3.72;;
32080;SDS011;18593;51.426;7.030;2023-08-12T13:09:42;7.82;;;4.13;;
32080;SDS011;18593;51.426;7.030;2023-08-12T13:12:12;6.72;;;4.25;;
32080;SDS011;18593;51.426;7.030;2023-08-12T13:14:39;5.88;;;4.53;;
32080;SDS011;18593;51.426;7.030;2023-08-12T13:17:06;6.78;;;4.55;;
32080;SDS011;18593;51.426;7.030;2023-08-12T13:19:34;6.50;;;5.13;;
32080;SDS011;18593;51.426;7.030;2023-08-12T13:22:01;9.32;;;5.47;;
32080;SDS011;18593;51.426;7.030;2023-08-12T13:24:28;12.48;;;6.50;;
32080;SDS011;18593;51.426;7.030;2023-08-12T13:26:56;9.40;;;7.05;;
32080;SDS011;18593;51.426;7.030;2023-08-12T13:29:25;13.27;;;8.35;;
32080;SDS011;18593;51.426;7.030;2023-08-12T13:31:52;12.80;;;9.73;;
32080;SDS011;18593;51.426;7.030;2023-08-12T13:34:19;15.43;;;11.23;;
32080;SDS011;18593;51.426;7.030;2023-08-12T13:36:46;17.92;;;13.05;;
32080;SDS011;18593;51.426;7.030;2023-08-12T13:39:14;20.10;;;14.85;;
32080;SDS011;18593;51.426;7.030;2023-08-12T13:41:41;23.15;;;16.30;;
32080;SDS011;18593;51.426;7.030;2023-08-12T13:44:08;19.70;;;15.90;;
32080;SDS011;18593;51.426;7.030;2023-08-12T13:46:37;23.85;;;17.15;;
32080;SDS011;18593;51.426;7.030;2023-08-12T13:49:04;19.90;;;16.08;;
32080;SDS011;18593;51.426;7.030;2023-08-12T13:51:32;22.42;;;16.60;;
32080;SDS011;18593;51.426;7.030;2023-08-12T13:53:59;18.42;;;15.00;;
32080;SDS011;18593;51.426;7.030;2023-08-12T13:56:27;17.73;;;13.82;;
32080;SDS011;18593;51.426;7.030;2023-08-12T13:58:54;14.18;;;11.55;;
32080;SDS011;18593;51.426;7.030;2023-08-12T14:01:22;13.13;;;9.02;;
32080;SDS011;18593;51.426;7.030;2023-08-12T14:03:50;9.32;;;6.82;;
32080;SDS011;18593;51.426;7.030;2023-08-12T14:06:18;9.52;;;6.07;;
32080;SDS011;18593;51.426;7.030;2023-08-12T14:08:46;7.65;;;5.90;;
32080;SDS011;18593;51.426;7.030;2023-08-12T14:11:13;8.07;;;6.32;;
32080;SDS011;18593;51.426;7.030;2023-08-12T14:13:41;6.63;;;5.53;;
32080;SDS011;18593;51.426;7.030;2023-08-12T14:16:08;10.57;;;6.30;;
32080;SDS011;18593;51.426;7.030;2023-08-12T14:18:35;9.05;;;6.50;;
32080;SDS011;18593;51.426;7.030;2023-08-12T14:21:04;7.85;;;6.53;;
32080;SDS011;18593;51.426;7.030;2023-08-12T14:23:34;10.45;;;7.18;;
32080;SDS011;18593;51.426;7.030;2023-08-12T14:26:02;10.77;;;6.32;;
32080;SDS011;18593;51.426;7.030;2023-08-12T14:28:29;10.88;;;6.50;;
32080;SDS011;18593;51.426;7.030;2023-08-12T14:30:56;10.73;;;6.88;;
32080;SDS011;18593;51.426;7.030;2023-08-12T14:33:24;10.43;;;6.43;;
32080;SDS011;18593;51.426;7.030;2023-08-12T14:35:51;9.32;;;7.13;;
32080;SDS011;18593;51.426;7.030;2023-08-12T14:38:21;10.93;;;7.53;;
32080;SDS011;18593;51.426;7.030;2023-08-12T14:40:48;11.75;;;8.73;;
32080;SDS011;18593;51.426;7.030;2023-08-12T14:43:15;11.45;;;7.88;;
32080;SDS011;18593;51.426;7.030;2023-08-12T14:45:44;13.43;;;9.13;;
32080;SDS011;18593;51.426;7.030;2023-08-12T14:48:11;16.67;;;13.23;;